sensor_id;sensor_type;location;lat;lon;timestamp;P1;durP1;ratioP1;P2;durP2;ratioP2
64609;SDS011;51019;46.090;6.350;2023-09-08T00:02:12;17.52;;;8.73;;
64609;SDS011;51019;46.090;6.350;2023-09-08T00:04:39;17.52;;;8.57;;
64609;SDS011;51019;46.090;6.350;2023-09-08T00:07:06;16.05;;;8.00;;
64609;SDS011;51019;46.090;6.350;2023-09-08T00:09:35;16.83;;;8.40;;
64609;SDS011;51019;46.090;6.350;2023-09-08T00:12:02;15.23;;;8.40;;
64609;SDS011;51019;46.090;6.350;2023-09-08T00:14:29;17.58;;;8.88;;
64609;SDS011;51019;46.090;6.350;2023-09-08T00:16:56;16.40;;;8.48;;
64609;SDS011;51019;46.090;6.350;2023-09-08T00:19:23;16.67;;;8.40;;
64609;SDS011;51019;46.090;6.350;2023-09-08T00:21:49;21.70;;;9.07;;
64609;SDS011;51019;46.090;6.350;2023-09-08T00:24:16;15.35;;;7.55;;
64609;SDS011;51019;46.090;6.350;2023-09-08T00:26:46;16.20;;;9.25;;
64609;SDS011;51019;46.090;6.350;2023-09-08T00:29:13;15.05;;;8.20;;
64609;SDS011;51019;46.090;6.350;2023-09-08T00:31:40;17.50;;;8.65;;
64609;SDS011;51019;46.090;6.350;2023-09-08T00:34:08;17.10;;;8.48;;
64609;SDS011;51019;46.090;6.350;2023-09-08T00:36:35;18.70;;;8.45;;
64609;SDS011;51019;46.090;6.350;2023-09-08T00:39:03;16.27;;;8.77;;
64609;SDS011;51019;46.090;6.350;2023-09-08T00:44:53;16.20;;;7.82;;
64609;SDS011;51019;46.090;6.350;2023-09-08T00:47:21;16.27;;;7.78;;
64609;SDS011;51019;46.090;6.350;2023-09-08T00:49:51;16.65;;;8.27;;
64609;SDS011;51019;46.090;6.350;2023-09-08T00:52:19;15.65;;;7.28;;
64609;SDS011;51019;46.090;6.350;2023-09-08T00:54:46;15.57;;;7.63;;
64609;SDS011;51019;46.090;6.350;2023-09-08T00:57:13;16.02;;;8.02;;
64609;SDS011;51019;46.090;6.350;2023-09-08T00:59:40;19.25;;;8.85;;
64609;SDS011;51019;46.090;6.350;2023-09-08T01:02:11;16.25;;;8.25;;
64609;SDS011;51019;46.090;6.350;2023-09-08T01:04:38;17.90;;;8.68;;
64609;SDS011;51019;46.090;6.350;2023-09-08T01:07:07;15.85;;;8.73;;
64609;SDS011;51019;46.090;6.350;2023-09-08T01:09:34;15.93;;;8.57;;
64609;SDS011;51019;46.090;6.350;2023-09-08T01:12:03;17.67;;;8.63;;
64609;SDS011;51019;46.090;6.350;2023-09-08T01:14:33;16.65;;;9.07;;
64609;SDS011;51019;46.090;6.350;2023-09-08T01:17:00;19.00;;;8.50;;
64609;SDS011;51019;46.090;6.350;2023-09-08T01:19:29;16.35;;;9.02;;
64609;SDS011;51019;46.090;6.350;2023-09-08T01:25:06;16.63;;;8.20;;
64609;SDS011;51019;46.090;6.350;2023-09-08T01:27:40;15.75;;;8.65;;
64609;SDS011;51019;46.090;6.350;2023-09-08T01:32:39;15.25;;;7.88;;
64609;SDS011;51019;46.090;6.350;2023-09-08T01:35:07;15.27;;;8.07;;
64609;SDS011;51019;46.090;6.350;2023-09-08T01:37:35;15.77;;;8.18;;
64609;SDS011;51019;46.090;6.350;2023-09-08T01:40:02;16.80;;;8.32;;
64609;SDS011;51019;46.090;6.350;2023-09-08T01:42:31;16.67;;;8.23;;
64609;SDS011;51019;46.090;6.350;2023-09-08T01:44:57;16.23;;;8.80;;
64609;SDS011;51019;46.090;6.350;2023-09-08T01:47:24;15.95;;;8.52;;
64609;SDS011;51019;46.090;6.350;2023-09-08T01:49:52;15.60;;;8.15;;
64609;SDS011;51019;46.090;6.350;2023-09-08T01:52:19;19.05;;;8.57;;
64609;SDS011;51019;46.090;6.350;2023-09-08T01:54:46;19.20;;;8.20;;
64609;SDS011;51019;46.090;6.350;2023-09-08T01:57:13;15.55;;;7.85;;
64609;SDS011;51019;46.090;6.350;2023-09-08T01:59:42;17.38;;;8.20;;
64609;SDS011;51019;46.090;6.350;2023-09-08T02:02:09;16.95;;;8.27;;
64609;SDS011;51019;46.090;6.350;2023-09-08T02:04:38;18.05;;;8.10;;
64609;SDS011;51019;46.090;6.350;2023-09-08T02:07:05;17.77;;;8.18;;
64609;SDS011;51019;46.090;6.350;2023-09-08T02:09:32;15.32;;;8.02;;
64609;SDS011;51019;46.090;6.350;2023-09-08T02:12:00;15.75;;;8.07;;
64609;SDS011;51019;46.090;6.350;2023-09-08T02:14:27;18.45;;;9.30;;
64609;SDS011;51019;46.090;6.350;2023-09-08T02:16:55;18.90;;;9.00;;
64609;SDS011;51019;46.090;6.350;2023-09-08T02:19:22;16.45;;;8.20;;
64609;SDS011;51019;46.090;6.350;2023-09-08T02:21:50;14.80;;;8.25;;
64609;SDS011;51019;46.090;6.350;2023-09-08T02:24:17;18.15;;;8.45;;
64609;SDS011;51019;46.090;6.350;2023-09-08T02:26:44;16.17;;;8.68;;
64609;SDS011;51019;46.090;6.350;2023-09-08T02:29:10;17.00;;;8.63;;
64609;SDS011;51019;46.090;6.350;2023-09-08T02:31:37;16.40;;;8.60;;
64609;SDS011;51019;46.090;6.350;2023-09-08T02:34:05;17.58;;;8.63;;
64609;SDS011;51019;46.090;6.350;2023-09-08T02:36:34;19.13;;;9.32;;
64609;SDS011;51019;46.090;6.350;2023-09-08T02:38:59;18.95;;;8.88;;
64609;SDS011;51019;46.090;6.350;2023-09-08T02:41:26;19.17;;;8.57;;
64609;SDS011;51019;46.090;6.350;2023-09-08T02:43:54;18.27;;;9.32;;
64609;SDS011;51019;46.090;6.350;2023-09-08T02:46:21;17.60;;;9.70;;
64609;SDS011;51019;46.090;6.350;2023-09-08T02:48:48;15.20;;;8.27;;
64609;SDS011;51019;46.090;6.350;2023-09-08T02:51:17;16.85;;;8.60;;
64609;SDS011;51019;46.090;6.350;2023-09-08T02:53:43;17.42;;;9.30;;
64609;SDS011;51019;46.090;6.350;2023-09-08T02:56:10;16.50;;;9.00;;
64609;SDS011;51019;46.090;6.350;2023-09-08T02:58:37;15.80;;;8.20;;
64609;SDS011;51019;46.090;6.350;2023-09-08T03:01:10;19.15;;;8.57;;
64609;SDS011;51019;46.090;6.350;2023-09-08T03:03:39;16.60;;;8.48;;
64609;SDS011;51019;46.090;6.350;2023-09-08T03:06:07;17.35;;;8.75;;
64609;SDS011;51019;46.090;6.350;2023-09-08T03:08:35;17.60;;;8.48;;
64609;SDS011;51019;46.090;6.350;2023-09-08T03:11:03;16.58;;;8.70;;
64609;SDS011;51019;46.090;6.350;2023-09-08T03:13:31;15.93;;;8.20;;
64609;SDS011;51019;46.090;6.350;2023-09-08T03:16:02;16.25;;;8.25;;
64609;SDS011;51019;46.090;6.350;2023-09-08T03:18:30;15.02;;;7.90;;
64609;SDS011;51019;46.090;6.350;2023-09-08T03:20:57;16.58;;;8.75;;
64609;SDS011;51019;46.090;6.350;2023-09-08T03:23:25;17.27;;;8.43;;
64609;SDS011;51019;46.090;6.350;2023-09-08T03:25:54;16.92;;;8.45;;
64609;SDS011;51019;46.090;6.350;2023-09-08T03:28:20;16.77;;;8.52;;
64609;SDS011;51019;46.090;6.350;2023-09-08T03:30:47;16.60;;;7.93;;
64609;SDS011;51019;46.090;6.350;2023-09-08T03:33:14;14.95;;;8.10;;
64609;SDS011;51019;46.090;6.350;2023-09-08T03:35:41;17.45;;;9.07;;
64609;SDS011;51019;46.090;6.350;2023-09-08T03:38:08;16.58;;;8.23;;
64609;SDS011;51019;46.090;6.350;2023-09-08T03:40:34;18.92;;;8.85;;
64609;SDS011;51019;46.090;6.350;2023-09-08T03:43:03;15.90;;;8.18;;
64609;SDS011;51019;46.090;6.350;2023-09-08T03:45:30;15.77;;;7.95;;
64609;SDS011;51019;46.090;6.350;2023-09-08T03:47:57;15.45;;;8.65;;
64609;SDS011;51019;46.090;6.350;2023-09-08T03:50:24;15.77;;;8.30;;
64609;SDS011;51019;46.090;6.350;2023-09-08T03:52:51;17.13;;;8.18;;
64609;SDS011;51019;46.090;6.350;2023-09-08T03:55:18;16.85;;;8.02;;
64609;SDS011;51019;46.090;6.350;2023-09-08T03:57:45;17.75;;;8.05;;
64609;SDS011;51019;46.090;6.350;2023-09-08T04:00:15;16.52;;;8.75;;
64609;SDS011;51019;46.090;6.350;2023-09-08T04:02:47;15.40;;;8.00;;
64609;SDS011;51019;46.090;6.350;2023-09-08T04:05:14;17.23;;;7.93;;
64609;SDS011;51019;46.090;6.350;2023-09-08T04:07:42;15.45;;;8.45;;
64609;SDS011;51019;46.090;6.350;2023-09-08T04:10:10;20.35;;;9.00;;
64609;SDS011;51019;46.090;6.350;2023-09-08T04:12:38;18.83;;;9.10;;
64609;SDS011;51019;46.090;6.350;2023-09-08T04:15:05;17.05;;;9.13;;
64609;SDS011;51019;46.090;6.350;2023-09-08T04:17:34;16.63;;;8.68;;
64609;SDS011;51019;46.090;6.350;2023-09-08T04:20:02;16.73;;;8.25;;
64609;SDS011;51019;46.090;6.350;2023-09-08T04:22:31;15.27;;;8.15;;
64609;SDS011;51019;46.090;6.350;2023-09-08T04:24:59;16.05;;;8.60;;
64609;SDS011;51019;46.090;6.350;2023-09-08T04:27:26;17.00;;;7.97;;
64609;SDS011;51019;46.090;6.350;2023-09-08T04:29:53;16.08;;;7.85;;
64609;SDS011;51019;46.090;6.350;2023-09-08T04:32:19;16.17;;;8.60;;
64609;SDS011;51019;46.090;6.350;2023-09-08T04:34:48;17.15;;;8.32;;
64609;SDS011;51019;46.090;6.350;2023-09-08T04:37:15;17.23;;;8.88;;
64609;SDS011;51019;46.090;6.350;2023-09-08T04:39:42;17.58;;;8.90;;
64609;SDS011;51019;46.090;6.350;2023-09-08T04:42:09;20.23;;;8.30;;
64609;SDS011;51019;46.090;6.350;2023-09-08T04:44:36;18.77;;;8.02;;
64609;SDS011;51019;46.090;6.350;2023-09-08T04:47:03;17.73;;;8.27;;
64609;SDS011;51019;46.090;6.350;2023-09-08T04:49:31;18.85;;;8.32;;
64609;SDS011;51019;46.090;6.350;2023-09-08T04:51:59;16.00;;;8.48;;
64609;SDS011;51019;46.090;6.350;2023-09-08T04:54:26;15.57;;;8.40;;
64609;SDS011;51019;46.090;6.350;2023-09-08T04:56:53;15.98;;;8.60;;
64609;SDS011;51019;46.090;6.350;2023-09-08T04:59:20;18.58;;;8.63;;
64609;SDS011;51019;46.090;6.350;2023-09-08T05:01:48;16.83;;;8.52;;
64609;SDS011;51019;46.090;6.350;2023-09-08T05:04:15;16.98;;;8.27;;
64609;SDS011;51019;46.090;6.350;2023-09-08T05:06:42;17.63;;;8.88;;
64609;SDS011;51019;46.090;6.350;2023-09-08T05:09:11;16.17;;;8.60;;
64609;SDS011;51019;46.090;6.350;2023-09-08T05:11:37;17.27;;;8.45;;
64609;SDS011;51019;46.090;6.350;2023-09-08T05:14:04;17.10;;;7.95;;
64609;SDS011;51019;46.090;6.350;2023-09-08T05:16:31;15.75;;;8.35;;
64609;SDS011;51019;46.090;6.350;2023-09-08T05:19:04;18.35;;;8.30;;
64609;SDS011;51019;46.090;6.350;2023-09-08T05:21:33;17.55;;;8.82;;
64609;SDS011;51019;46.090;6.350;2023-09-08T05:24:00;17.30;;;8.88;;
64609;SDS011;51019;46.090;6.350;2023-09-08T05:26:28;16.83;;;8.77;;
64609;SDS011;51019;46.090;6.350;2023-09-08T05:28:55;16.88;;;8.35;;
64609;SDS011;51019;46.090;6.350;2023-09-08T05:31:22;22.33;;;8.68;;
64609;SDS011;51019;46.090;6.350;2023-09-08T05:33:49;19.35;;;8.85;;
64609;SDS011;51019;46.090;6.350;2023-09-08T05:36:16;17.70;;;8.88;;
64609;SDS011;51019;46.090;6.350;2023-09-08T05:38:42;17.13;;;8.15;;
64609;SDS011;51019;46.090;6.350;2023-09-08T05:41:09;16.60;;;8.77;;
64609;SDS011;51019;46.090;6.350;2023-09-08T05:43:38;16.73;;;8.30;;
64609;SDS011;51019;46.090;6.350;2023-09-08T05:46:04;18.00;;;8.65;;
64609;SDS011;51019;46.090;6.350;2023-09-08T05:48:31;17.38;;;8.60;;
64609;SDS011;51019;46.090;6.350;2023-09-08T05:50:59;16.48;;;9.10;;
64609;SDS011;51019;46.090;6.350;2023-09-08T05:53:27;16.98;;;8.90;;
64609;SDS011;51019;46.090;6.350;2023-09-08T05:55:54;15.98;;;9.00;;
64609;SDS011;51019;46.090;6.350;2023-09-08T05:58:21;17.67;;;8.25;;
64609;SDS011;51019;46.090;6.350;2023-09-08T06:00:50;15.95;;;8.38;;
64609;SDS011;51019;46.090;6.350;2023-09-08T06:03:17;20.08;;;8.70;;
64609;SDS011;51019;46.090;6.350;2023-09-08T06:05:44;17.85;;;8.50;;
64609;SDS011;51019;46.090;6.350;2023-09-08T06:08:11;19.35;;;9.30;;
64609;SDS011;51019;46.090;6.350;2023-09-08T06:10:38;20.23;;;9.27;;
64609;SDS011;51019;46.090;6.350;2023-09-08T06:13:07;17.15;;;9.02;;
64609;SDS011;51019;46.090;6.350;2023-09-08T06:15:33;17.65;;;9.07;;
64609;SDS011;51019;46.090;6.350;2023-09-08T06:18:02;17.60;;;9.30;;
64609;SDS011;51019;46.090;6.350;2023-09-08T06:20:30;17.65;;;9.13;;
64609;SDS011;51019;46.090;6.350;2023-09-08T06:22:57;19.20;;;8.68;;
64609;SDS011;51019;46.090;6.350;2023-09-08T06:25:24;19.98;;;9.55;;
64609;SDS011;51019;46.090;6.350;2023-09-08T06:27:50;15.45;;;8.93;;
64609;SDS011;51019;46.090;6.350;2023-09-08T06:30:17;21.08;;;9.27;;
64609;SDS011;51019;46.090;6.350;2023-09-08T06:32:44;16.13;;;9.25;;
64609;SDS011;51019;46.090;6.350;2023-09-08T06:35:13;17.83;;;9.15;;
64609;SDS011;51019;46.090;6.350;2023-09-08T06:37:40;17.10;;;9.77;;
64609;SDS011;51019;46.090;6.350;2023-09-08T06:40:07;18.40;;;10.38;;
64609;SDS011;51019;46.090;6.350;2023-09-08T06:42:34;19.08;;;9.90;;
64609;SDS011;51019;46.090;6.350;2023-09-08T06:45:01;19.48;;;10.38;;
64609;SDS011;51019;46.090;6.350;2023-09-08T06:47:28;18.85;;;10.05;;
64609;SDS011;51019;46.090;6.350;2023-09-08T06:49:55;17.70;;;9.27;;
64609;SDS011;51019;46.090;6.350;2023-09-08T06:52:24;20.42;;;10.25;;
64609;SDS011;51019;46.090;6.350;2023-09-08T06:54:51;21.65;;;10.73;;
64609;SDS011;51019;46.090;6.350;2023-09-08T06:57:18;20.65;;;9.70;;
64609;SDS011;51019;46.090;6.350;2023-09-08T06:59:46;22.40;;;10.40;;
64609;SDS011;51019;46.090;6.350;2023-09-08T07:02:15;20.15;;;9.40;;
64609;SDS011;51019;46.090;6.350;2023-09-08T07:04:42;17.95;;;10.18;;
64609;SDS011;51019;46.090;6.350;2023-09-08T07:07:09;21.40;;;11.13;;
64609;SDS011;51019;46.090;6.350;2023-09-08T07:09:37;18.75;;;9.73;;
64609;SDS011;51019;46.090;6.350;2023-09-08T07:12:05;23.02;;;10.88;;
64609;SDS011;51019;46.090;6.350;2023-09-08T07:14:32;28.33;;;10.73;;
64609;SDS011;51019;46.090;6.350;2023-09-08T07:17:00;23.10;;;11.25;;
64609;SDS011;51019;46.090;6.350;2023-09-08T07:19:28;21.13;;;11.30;;
64609;SDS011;51019;46.090;6.350;2023-09-08T07:21:55;20.23;;;10.52;;
64609;SDS011;51019;46.090;6.350;2023-09-08T07:24:21;20.73;;;10.88;;
64609;SDS011;51019;46.090;6.350;2023-09-08T07:26:51;21.23;;;10.63;;
64609;SDS011;51019;46.090;6.350;2023-09-08T07:29:18;23.25;;;10.60;;
64609;SDS011;51019;46.090;6.350;2023-09-08T07:31:44;20.90;;;10.50;;
64609;SDS011;51019;46.090;6.350;2023-09-08T07:34:11;20.30;;;10.70;;
64609;SDS011;51019;46.090;6.350;2023-09-08T07:36:38;18.00;;;10.38;;
64609;SDS011;51019;46.090;6.350;2023-09-08T07:39:05;21.25;;;10.98;;
64609;SDS011;51019;46.090;6.350;2023-09-08T07:41:32;20.08;;;10.43;;
64609;SDS011;51019;46.090;6.350;2023-09-08T07:44:01;21.05;;;10.75;;
64609;SDS011;51019;46.090;6.350;2023-09-08T07:46:28;21.98;;;10.95;;
64609;SDS011;51019;46.090;6.350;2023-09-08T07:48:57;19.80;;;10.98;;
64609;SDS011;51019;46.090;6.350;2023-09-08T07:51:25;22.77;;;10.38;;
64609;SDS011;51019;46.090;6.350;2023-09-08T07:53:52;20.42;;;10.73;;
64609;SDS011;51019;46.090;6.350;2023-09-08T07:56:21;21.30;;;10.38;;
64609;SDS011;51019;46.090;6.350;2023-09-08T07:58:48;18.98;;;10.00;;
64609;SDS011;51019;46.090;6.350;2023-09-08T08:01:16;17.42;;;9.30;;
64609;SDS011;51019;46.090;6.350;2023-09-08T08:03:43;18.73;;;10.43;;
64609;SDS011;51019;46.090;6.350;2023-09-08T08:06:10;19.20;;;10.30;;
64609;SDS011;51019;46.090;6.350;2023-09-08T08:08:37;22.08;;;10.35;;
64609;SDS011;51019;46.090;6.350;2023-09-08T08:11:08;20.60;;;9.75;;
64609;SDS011;51019;46.090;6.350;2023-09-08T08:13:37;20.48;;;9.60;;
64609;SDS011;51019;46.090;6.350;2023-09-08T08:16:04;21.65;;;10.75;;
64609;SDS011;51019;46.090;6.350;2023-09-08T08:18:35;20.00;;;9.57;;
64609;SDS011;51019;46.090;6.350;2023-09-08T08:21:01;17.75;;;9.00;;
64609;SDS011;51019;46.090;6.350;2023-09-08T08:23:30;19.80;;;10.13;;
64609;SDS011;51019;46.090;6.350;2023-09-08T08:25:59;19.23;;;9.80;;
64609;SDS011;51019;46.090;6.350;2023-09-08T08:28:26;20.48;;;8.52;;
64609;SDS011;51019;46.090;6.350;2023-09-08T08:30:53;16.10;;;8.52;;
64609;SDS011;51019;46.090;6.350;2023-09-08T08:33:21;19.20;;;8.80;;
64609;SDS011;51019;46.090;6.350;2023-09-08T08:35:52;18.83;;;8.93;;
64609;SDS011;51019;46.090;6.350;2023-09-08T08:38:20;20.55;;;9.45;;
64609;SDS011;51019;46.090;6.350;2023-09-08T08:40:46;21.13;;;9.82;;
64609;SDS011;51019;46.090;6.350;2023-09-08T08:43:16;19.30;;;8.50;;
64609;SDS011;51019;46.090;6.350;2023-09-08T08:45:43;15.73;;;8.40;;
64609;SDS011;51019;46.090;6.350;2023-09-08T08:48:12;16.45;;;8.23;;
64609;SDS011;51019;46.090;6.350;2023-09-08T08:50:41;16.52;;;7.50;;
64609;SDS011;51019;46.090;6.350;2023-09-08T08:53:12;18.23;;;8.50;;
64609;SDS011;51019;46.090;6.350;2023-09-08T08:55:39;18.33;;;8.57;;
64609;SDS011;51019;46.090;6.350;2023-09-08T08:58:09;18.85;;;7.93;;
64609;SDS011;51019;46.090;6.350;2023-09-08T09:00:36;14.85;;;8.02;;
64609;SDS011;51019;46.090;6.350;2023-09-08T09:03:04;14.80;;;7.28;;
64609;SDS011;51019;46.090;6.350;2023-09-08T09:05:32;14.55;;;7.07;;
64609;SDS011;51019;46.090;6.350;2023-09-08T09:08:01;16.38;;;7.25;;
64609;SDS011;51019;46.090;6.350;2023-09-08T09:10:32;14.60;;;7.30;;
64609;SDS011;51019;46.090;6.350;2023-09-08T09:12:59;16.35;;;7.47;;
64609;SDS011;51019;46.090;6.350;2023-09-08T09:15:29;16.23;;;7.97;;
64609;SDS011;51019;46.090;6.350;2023-09-08T09:18:03;14.18;;;6.43;;
64609;SDS011;51019;46.090;6.350;2023-09-08T09:20:31;14.77;;;6.63;;
64609;SDS011;51019;46.090;6.350;2023-09-08T09:22:59;15.88;;;7.28;;
64609;SDS011;51019;46.090;6.350;2023-09-08T09:25:28;14.07;;;6.40;;
64609;SDS011;51019;46.090;6.350;2023-09-08T09:28:04;13.55;;;6.68;;
64609;SDS011;51019;46.090;6.350;2023-09-08T09:30:46;15.88;;;6.43;;
64609;SDS011;51019;46.090;6.350;2023-09-08T09:33:14;14.32;;;6.97;;
64609;SDS011;51019;46.090;6.350;2023-09-08T09:35:43;16.85;;;6.97;;
64609;SDS011;51019;46.090;6.350;2023-09-08T09:38:12;12.73;;;6.55;;
64609;SDS011;51019;46.090;6.350;2023-09-08T09:40:39;16.52;;;7.25;;
64609;SDS011;51019;46.090;6.350;2023-09-08T09:43:09;14.07;;;7.15;;
64609;SDS011;51019;46.090;6.350;2023-09-08T09:45:37;13.45;;;6.85;;
64609;SDS011;51019;46.090;6.350;2023-09-08T09:48:06;14.15;;;6.28;;
64609;SDS011;51019;46.090;6.350;2023-09-08T09:50:34;15.10;;;6.45;;
64609;SDS011;51019;46.090;6.350;2023-09-08T09:53:07;13.52;;;6.60;;
64609;SDS011;51019;46.090;6.350;2023-09-08T09:55:36;12.68;;;6.43;;
64609;SDS011;51019;46.090;6.350;2023-09-08T09:58:03;14.10;;;6.40;;
64609;SDS011;51019;46.090;6.350;2023-09-08T10:00:33;15.02;;;7.43;;
64609;SDS011;51019;46.090;6.350;2023-09-08T10:03:02;15.38;;;6.22;;
64609;SDS011;51019;46.090;6.350;2023-09-08T10:05:30;14.02;;;6.20;;
64609;SDS011;51019;46.090;6.350;2023-09-08T10:07:58;14.90;;;6.95;;
64609;SDS011;51019;46.090;6.350;2023-09-08T10:10:26;15.25;;;6.15;;
64609;SDS011;51019;46.090;6.350;2023-09-08T10:13:00;14.32;;;6.50;;
64609;SDS011;51019;46.090;6.350;2023-09-08T10:15:29;12.85;;;5.85;;
64609;SDS011;51019;46.090;6.350;2023-09-08T10:17:59;16.67;;;6.53;;
64609;SDS011;51019;46.090;6.350;2023-09-08T10:20:31;16.40;;;6.72;;
64609;SDS011;51019;46.090;6.350;2023-09-08T10:23:01;15.57;;;6.55;;
64609;SDS011;51019;46.090;6.350;2023-09-08T10:25:35;14.20;;;6.68;;
64609;SDS011;51019;46.090;6.350;2023-09-08T10:30:33;15.60;;;6.88;;
64609;SDS011;51019;46.090;6.350;2023-09-08T10:33:02;15.52;;;6.95;;
64609;SDS011;51019;46.090;6.350;2023-09-08T10:35:31;13.38;;;6.28;;
64609;SDS011;51019;46.090;6.350;2023-09-08T10:40:50;15.60;;;5.63;;
64609;SDS011;51019;46.090;6.350;2023-09-08T10:43:17;13.70;;;6.45;;
64609;SDS011;51019;46.090;6.350;2023-09-08T10:45:48;13.98;;;6.13;;
64609;SDS011;51019;46.090;6.350;2023-09-08T10:48:17;14.77;;;5.90;;
64609;SDS011;51019;46.090;6.350;2023-09-08T10:53:16;14.90;;;6.40;;
64609;SDS011;51019;46.090;6.350;2023-09-08T10:55:45;14.10;;;6.43;;
64609;SDS011;51019;46.090;6.350;2023-09-08T10:58:18;17.23;;;6.90;;
64609;SDS011;51019;46.090;6.350;2023-09-08T11:00:47;14.25;;;6.97;;
64609;SDS011;51019;46.090;6.350;2023-09-08T11:03:27;13.43;;;6.30;;
64609;SDS011;51019;46.090;6.350;2023-09-08T11:05:57;15.02;;;6.70;;
64609;SDS011;51019;46.090;6.350;2023-09-08T11:08:25;13.40;;;6.20;;
64609;SDS011;51019;46.090;6.350;2023-09-08T11:10:53;13.57;;;6.60;;
64609;SDS011;51019;46.090;6.350;2023-09-08T11:13:22;14.40;;;5.85;;
64609;SDS011;51019;46.090;6.350;2023-09-08T11:15:50;15.02;;;5.93;;
64609;SDS011;51019;46.090;6.350;2023-09-08T11:18:27;17.20;;;6.38;;
64609;SDS011;51019;46.090;6.350;2023-09-08T11:21:00;15.55;;;7.07;;
64609;SDS011;51019;46.090;6.350;2023-09-08T11:23:28;13.77;;;6.35;;
64609;SDS011;51019;46.090;6.350;2023-09-08T11:25:56;19.33;;;6.95;;
64609;SDS011;51019;46.090;6.350;2023-09-08T11:28:25;13.30;;;6.05;;
64609;SDS011;51019;46.090;6.350;2023-09-08T11:30:53;13.75;;;6.28;;
64609;SDS011;51019;46.090;6.350;2023-09-08T11:33:22;13.68;;;6.78;;
64609;SDS011;51019;46.090;6.350;2023-09-08T11:35:52;16.80;;;6.03;;
64609;SDS011;51019;46.090;6.350;2023-09-08T11:38:24;13.30;;;6.35;;
64609;SDS011;51019;46.090;6.350;2023-09-08T11:40:52;15.02;;;6.05;;
64609;SDS011;51019;46.090;6.350;2023-09-08T11:43:24;14.02;;;6.20;;
64609;SDS011;51019;46.090;6.350;2023-09-08T11:45:53;12.27;;;6.38;;
64609;SDS011;51019;46.090;6.350;2023-09-08T11:48:22;15.05;;;6.35;;
64609;SDS011;51019;46.090;6.350;2023-09-08T11:50:59;15.23;;;6.65;;
64609;SDS011;51019;46.090;6.350;2023-09-08T11:53:27;13.95;;;6.00;;
64609;SDS011;51019;46.090;6.350;2023-09-08T11:55:55;15.50;;;6.43;;
64609;SDS011;51019;46.090;6.350;2023-09-08T11:58:22;14.25;;;6.03;;
64609;SDS011;51019;46.090;6.350;2023-09-08T12:00:49;14.05;;;6.45;;
64609;SDS011;51019;46.090;6.350;2023-09-08T12:03:16;13.85;;;6.13;;
64609;SDS011;51019;46.090;6.350;2023-09-08T12:05:43;17.58;;;6.95;;
64609;SDS011;51019;46.090;6.350;2023-09-08T12:08:13;15.15;;;6.35;;
64609;SDS011;51019;46.090;6.350;2023-09-08T12:10:41;13.73;;;6.60;;
64609;SDS011;51019;46.090;6.350;2023-09-08T12:13:09;14.23;;;6.28;;
64609;SDS011;51019;46.090;6.350;2023-09-08T12:15:39;13.88;;;6.80;;
64609;SDS011;51019;46.090;6.350;2023-09-08T12:18:09;14.50;;;6.25;;
64609;SDS011;51019;46.090;6.350;2023-09-08T12:20:37;13.57;;;6.28;;
64609;SDS011;51019;46.090;6.350;2023-09-08T12:23:05;13.02;;;6.13;;
64609;SDS011;51019;46.090;6.350;2023-09-08T12:25:46;13.63;;;6.07;;
64609;SDS011;51019;46.090;6.350;2023-09-08T12:28:16;12.30;;;6.30;;
64609;SDS011;51019;46.090;6.350;2023-09-08T12:33:12;14.43;;;6.40;;
64609;SDS011;51019;46.090;6.350;2023-09-08T12:35:42;13.30;;;6.57;;
64609;SDS011;51019;46.090;6.350;2023-09-08T12:38:09;12.60;;;6.22;;
64609;SDS011;51019;46.090;6.350;2023-09-08T12:40:37;12.63;;;5.70;;
64609;SDS011;51019;46.090;6.350;2023-09-08T12:43:09;12.30;;;6.55;;
64609;SDS011;51019;46.090;6.350;2023-09-08T12:45:36;16.30;;;6.60;;
64609;SDS011;51019;46.090;6.350;2023-09-08T12:48:04;14.65;;;6.93;;
64609;SDS011;51019;46.090;6.350;2023-09-08T12:50:32;13.27;;;6.82;;
64609;SDS011;51019;46.090;6.350;2023-09-08T12:52:59;12.52;;;6.20;;
64609;SDS011;51019;46.090;6.350;2023-09-08T12:55:27;12.93;;;6.00;;
64609;SDS011;51019;46.090;6.350;2023-09-08T12:57:54;13.18;;;6.53;;
64609;SDS011;51019;46.090;6.350;2023-09-08T13:00:24;12.27;;;5.60;;
64609;SDS011;51019;46.090;6.350;2023-09-08T13:02:52;14.82;;;6.57;;
64609;SDS011;51019;46.090;6.350;2023-09-08T13:05:27;13.48;;;6.55;;
64609;SDS011;51019;46.090;6.350;2023-09-08T13:07:54;14.68;;;6.85;;
64609;SDS011;51019;46.090;6.350;2023-09-08T13:10:21;14.02;;;6.70;;
64609;SDS011;51019;46.090;6.350;2023-09-08T13:12:49;13.70;;;6.70;;
64609;SDS011;51019;46.090;6.350;2023-09-08T13:15:17;13.43;;;6.35;;
64609;SDS011;51019;46.090;6.350;2023-09-08T13:17:45;12.30;;;6.32;;
64609;SDS011;51019;46.090;6.350;2023-09-08T13:20:12;13.63;;;6.20;;
64609;SDS011;51019;46.090;6.350;2023-09-08T13:22:39;12.30;;;5.85;;
64609;SDS011;51019;46.090;6.350;2023-09-08T13:25:06;11.82;;;5.75;;
64609;SDS011;51019;46.090;6.350;2023-09-08T13:27:34;12.35;;;5.85;;
64609;SDS011;51019;46.090;6.350;2023-09-08T13:30:07;16.05;;;6.82;;
64609;SDS011;51019;46.090;6.350;2023-09-08T13:32:35;13.93;;;5.88;;
64609;SDS011;51019;46.090;6.350;2023-09-08T13:35:04;13.70;;;6.97;;
64609;SDS011;51019;46.090;6.350;2023-09-08T13:37:31;14.95;;;6.55;;
64609;SDS011;51019;46.090;6.350;2023-09-08T13:39:59;13.55;;;6.50;;
64609;SDS011;51019;46.090;6.350;2023-09-08T13:42:26;13.70;;;6.28;;
64609;SDS011;51019;46.090;6.350;2023-09-08T13:44:53;13.23;;;6.55;;
64609;SDS011;51019;46.090;6.350;2023-09-08T13:47:20;14.35;;;7.00;;
64609;SDS011;51019;46.090;6.350;2023-09-08T13:49:48;12.48;;;6.25;;
64609;SDS011;51019;46.090;6.350;2023-09-08T13:52:18;15.95;;;6.47;;
64609;SDS011;51019;46.090;6.350;2023-09-08T13:54:45;17.13;;;6.60;;
64609;SDS011;51019;46.090;6.350;2023-09-08T13:57:11;12.95;;;6.10;;
64609;SDS011;51019;46.090;6.350;2023-09-08T13:59:38;14.10;;;6.00;;
64609;SDS011;51019;46.090;6.350;2023-09-08T14:02:06;12.63;;;5.60;;
64609;SDS011;51019;46.090;6.350;2023-09-08T14:04:33;12.27;;;5.72;;
64609;SDS011;51019;46.090;6.350;2023-09-08T14:07:00;13.80;;;5.53;;
64609;SDS011;51019;46.090;6.350;2023-09-08T14:09:29;13.65;;;5.72;;
64609;SDS011;51019;46.090;6.350;2023-09-08T14:11:57;13.40;;;6.15;;
64609;SDS011;51019;46.090;6.350;2023-09-08T14:14:24;12.73;;;6.00;;
64609;SDS011;51019;46.090;6.350;2023-09-08T14:16:51;14.73;;;6.22;;
64609;SDS011;51019;46.090;6.350;2023-09-08T14:19:18;14.02;;;6.00;;
64609;SDS011;51019;46.090;6.350;2023-09-08T14:21:45;12.60;;;5.63;;
64609;SDS011;51019;46.090;6.350;2023-09-08T14:24:12;14.07;;;6.32;;
64609;SDS011;51019;46.090;6.350;2023-09-08T14:26:40;14.85;;;6.25;;
64609;SDS011;51019;46.090;6.350;2023-09-08T14:29:07;12.95;;;5.70;;
64609;SDS011;51019;46.090;6.350;2023-09-08T14:31:35;15.45;;;5.72;;
64609;SDS011;51019;46.090;6.350;2023-09-08T14:34:02;14.55;;;5.65;;
64609;SDS011;51019;46.090;6.350;2023-09-08T14:36:30;15.23;;;6.10;;
64609;SDS011;51019;46.090;6.350;2023-09-08T14:38:57;14.25;;;5.97;;
64609;SDS011;51019;46.090;6.350;2023-09-08T14:41:24;13.23;;;5.72;;
64609;SDS011;51019;46.090;6.350;2023-09-08T14:43:52;14.20;;;6.45;;
64609;SDS011;51019;46.090;6.350;2023-09-08T14:46:19;12.50;;;6.03;;
64609;SDS011;51019;46.090;6.350;2023-09-08T14:48:46;13.95;;;5.70;;
64609;SDS011;51019;46.090;6.350;2023-09-08T14:51:13;12.95;;;5.43;;
64609;SDS011;51019;46.090;6.350;2023-09-08T14:53:40;14.15;;;6.10;;
64609;SDS011;51019;46.090;6.350;2023-09-08T14:56:07;15.18;;;6.03;;
64609;SDS011;51019;46.090;6.350;2023-09-08T14:58:33;13.18;;;6.15;;